createdAt,value
2024-05-09T00:00:40.428Z,3.17
2024-05-09T00:03:10.250Z,4.20
2024-05-09T00:05:38.731Z,3.30
2024-05-09T00:08:06.707Z,4.18
2024-05-09T00:10:37.511Z,3.85
2024-05-09T00:13:07.672Z,3.70
2024-05-09T00:15:35.911Z,3.22
2024-05-09T00:18:04.555Z,5.78
2024-05-09T00:20:38.532Z,3.70
2024-05-09T00:23:12.734Z,3.38
2024-05-09T00:25:42.672Z,4.00
2024-05-09T00:28:10.105Z,3.90
2024-05-09T00:30:37.675Z,3.63
2024-05-09T00:33:07.017Z,4.00
2024-05-09T00:35:35.891Z,3.95
2024-05-09T00:38:03.466Z,3.30
2024-05-09T00:40:41.837Z,4.53
2024-05-09T00:45:39.433Z,3.78
2024-05-09T00:48:09.429Z,3.55
2024-05-09T00:50:40.657Z,4.13
2024-05-09T00:53:11.971Z,3.38
2024-05-09T00:55:40.457Z,3.97
2024-05-09T00:58:09.464Z,4.55
2024-05-09T01:00:39.971Z,3.50
2024-05-09T01:03:13.484Z,3.55
2024-05-09T01:05:44.803Z,4.32
2024-05-09T01:08:13.338Z,3.00
2024-05-09T01:10:43.951Z,3.33
2024-05-09T01:13:12.586Z,4.55
2024-05-09T01:15:39.807Z,3.50
2024-05-09T01:18:14.076Z,3.58
2024-05-09T01:20:44.069Z,3.42
2024-05-09T01:23:14.889Z,3.83
2024-05-09T01:25:44.101Z,4.35
2024-05-09T01:28:11.360Z,3.30
2024-05-09T01:30:38.873Z,3.65
2024-05-09T01:33:08.696Z,3.90
2024-05-09T01:35:37.881Z,2.92
2024-05-09T01:38:05.494Z,4.32
2024-05-09T01:40:37.588Z,3.25
2024-05-09T01:43:11.522Z,3.53
2024-05-09T01:45:42.383Z,3.95
2024-05-09T01:48:11.114Z,4.18
2024-05-09T01:50:41.855Z,2.65
2024-05-09T01:53:11.702Z,3.97
2024-05-09T01:55:39.443Z,2.80
2024-05-09T01:58:07.279Z,4.03
2024-05-09T02:00:40.073Z,3.35
2024-05-09T02:03:13.513Z,2.75
2024-05-09T02:05:43.771Z,3.10
2024-05-09T02:08:15.290Z,3.20
2024-05-09T02:10:44.114Z,2.45
2024-05-09T02:13:11.509Z,3.17
2024-05-09T02:15:38.828Z,3.33
2024-05-09T02:18:06.708Z,2.97
2024-05-09T02:20:36.746Z,2.78
2024-05-09T02:23:06.588Z,3.97
2024-05-09T02:25:34.323Z,2.47
2024-05-09T02:28:01.822Z,2.90
2024-05-09T02:30:38.186Z,2.40
2024-05-09T02:33:09.256Z,2.30
2024-05-09T02:35:37.447Z,2.75
2024-05-09T02:38:04.801Z,2.60
2024-05-09T02:40:37.204Z,2.33
2024-05-09T02:43:09.824Z,2.85
2024-05-09T02:45:38.106Z,2.80
2024-05-09T02:48:06.085Z,2.65
2024-05-09T02:50:38.305Z,3.70
2024-05-09T02:53:08.231Z,2.88
2024-05-09T02:55:35.827Z,2.53
2024-05-09T02:58:02.982Z,2.35
2024-05-09T03:00:38.107Z,2.20
2024-05-09T03:03:09.835Z,2.50
2024-05-09T03:05:38.918Z,2.70
2024-05-09T03:08:06.493Z,2.38
2024-05-09T03:10:36.605Z,3.38
2024-05-09T03:13:14.838Z,2.47
2024-05-09T03:15:43.567Z,2.30
2024-05-09T03:18:11.665Z,2.15
2024-05-09T03:20:39.919Z,2.00
2024-05-09T03:23:09.861Z,2.53
2024-05-09T03:25:37.866Z,2.15
2024-05-09T03:28:05.290Z,2.25
2024-05-09T03:30:40.016Z,1.90
2024-05-09T03:33:18.800Z,1.98
2024-05-09T03:35:48.006Z,2.33
2024-05-09T03:38:15.626Z,1.60
2024-05-09T03:40:47.040Z,1.67
2024-05-09T03:43:14.532Z,1.50
2024-05-09T03:45:43.186Z,1.83
2024-05-09T03:48:10.918Z,1.97
2024-05-09T03:50:38.400Z,2.08
2024-05-09T03:53:06.356Z,1.60
2024-05-09T03:55:33.566Z,1.90
2024-05-09T03:58:00.869Z,2.03
2024-05-09T04:00:35.608Z,1.80
2024-05-09T04:03:09.044Z,1.92
2024-05-09T04:05:40.583Z,1.52
2024-05-09T04:08:09.113Z,2.65
2024-05-09T04:10:36.297Z,2.20
2024-05-09T04:13:04.364Z,1.77
2024-05-09T04:15:32.143Z,2.10
2024-05-09T04:17:59.956Z,1.40
2024-05-09T04:20:36.243Z,1.73
2024-05-09T04:23:08.232Z,2.42
2024-05-09T04:28:03.273Z,2.08
2024-05-09T04:30:37.133Z,1.63
2024-05-09T04:33:09.237Z,1.60
2024-05-09T04:35:39.159Z,2.17
2024-05-09T04:38:06.723Z,1.38
2024-05-09T04:40:36.420Z,1.98
2024-05-09T04:43:05.816Z,1.95
2024-05-09T04:45:33.316Z,2.38
2024-05-09T04:48:01.196Z,2.22
2024-05-09T04:50:36.535Z,1.85
2024-05-09T04:53:07.779Z,2.20
2024-05-09T04:55:36.498Z,1.67
2024-05-09T04:58:03.685Z,1.48
2024-05-09T05:00:36.413Z,2.80
2024-05-09T05:03:07.931Z,1.65
2024-05-09T05:05:40.334Z,1.50
2024-05-09T05:08:14.442Z,1.75
2024-05-09T05:10:43.119Z,1.40
2024-05-09T05:13:24.769Z,8.00
2024-05-09T05:15:56.917Z,3.47
2024-05-09T05:18:26.439Z,8.35
2024-05-09T05:20:55.224Z,4.30
2024-05-09T05:23:23.524Z,5.68
2024-05-09T05:25:55.535Z,7.35
2024-05-09T05:28:23.129Z,2.75
2024-05-09T05:30:50.373Z,4.00
2024-05-09T05:33:22.535Z,7.38
2024-05-09T05:35:50.261Z,2.58
2024-05-09T05:38:17.441Z,2.15
2024-05-09T05:40:44.719Z,1.92
2024-05-09T05:43:18.670Z,1.98
2024-05-09T05:45:46.372Z,2.30
2024-05-09T05:48:18.033Z,2.15
2024-05-09T05:50:45.701Z,2.05
2024-05-09T05:53:13.288Z,3.58
2024-05-09T05:55:41.645Z,8.77
2024-05-09T05:58:14.429Z,2.03
2024-05-09T06:00:42.778Z,1.27
2024-05-09T06:03:13.428Z,1.67
2024-05-09T06:05:43.590Z,1.50
2024-05-09T06:08:11.271Z,1.42
2024-05-09T06:10:40.565Z,1.95
2024-05-09T06:13:13.027Z,1.75
2024-05-09T06:15:41.414Z,11.98
2024-05-09T06:18:10.670Z,9.68
2024-05-09T06:20:40.072Z,3.65
2024-05-09T06:23:08.884Z,2.23
2024-05-09T06:25:36.716Z,8.90
2024-05-09T06:28:04.658Z,7.20
2024-05-09T06:30:40.208Z,2.78
2024-05-09T06:33:11.990Z,2.25
2024-05-09T06:35:41.223Z,2.22
2024-05-09T06:38:09.440Z,1.95
2024-05-09T06:40:39.691Z,9.63
2024-05-09T06:43:11.912Z,12.30
2024-05-09T06:45:39.981Z,11.32
2024-05-09T06:48:09.229Z,12.32
2024-05-09T06:50:38.531Z,8.25
2024-05-09T06:53:07.473Z,3.00
2024-05-09T06:55:34.801Z,3.35
2024-05-09T06:58:02.019Z,6.38
2024-05-09T07:00:35.823Z,11.10
2024-05-09T07:03:19.519Z,3.60
2024-05-09T07:05:48.820Z,10.98
2024-05-09T07:08:16.950Z,7.10
2024-05-09T07:10:44.753Z,10.50
2024-05-09T07:13:14.054Z,7.07
2024-05-09T07:15:42.425Z,7.85
2024-05-09T07:18:09.986Z,9.82
2024-05-09T07:20:37.298Z,9.93
2024-05-09T07:23:04.590Z,10.90
2024-05-09T07:25:31.952Z,9.88
2024-05-09T07:27:59.115Z,11.15
2024-05-09T07:30:33.002Z,11.48
2024-05-09T07:33:02.796Z,21.42
2024-05-09T07:35:31.183Z,9.98
2024-05-09T07:37:58.844Z,9.82
2024-05-09T07:40:33.195Z,38.88
2024-05-09T07:43:13.963Z,12.98
2024-05-09T07:45:50.543Z,9.45
2024-05-09T07:52:33.095Z,9.52
2024-05-09T07:53:49.359Z,10.52
2024-05-09T07:56:21.857Z,10.48
2024-05-09T07:58:51.772Z,9.80
2024-05-09T08:01:19.630Z,9.30
2024-05-09T08:03:47.209Z,6.43
2024-05-09T08:06:14.648Z,7.82
2024-05-09T08:08:41.848Z,10.20
2024-05-09T08:11:09.059Z,17.60
2024-05-09T08:13:36.188Z,10.30
2024-05-09T08:16:03.379Z,6.85
2024-05-09T08:18:30.793Z,8.95
2024-05-09T08:20:58.352Z,8.73
2024-05-09T08:23:25.476Z,8.82
2024-05-09T08:25:55.386Z,9.25
2024-05-09T08:28:22.729Z,10.57
2024-05-09T08:30:50.142Z,4.97
2024-05-09T08:33:17.428Z,3.30
2024-05-09T08:35:44.557Z,2.72
2024-05-09T08:38:11.793Z,2.10
2024-05-09T08:40:39.269Z,7.68
2024-05-09T08:43:12.046Z,7.95
2024-05-09T08:45:43.661Z,7.75
2024-05-09T08:48:14.974Z,11.23
2024-05-09T08:50:43.644Z,10.80
2024-05-09T08:53:11.179Z,2.97
2024-05-09T08:55:42.190Z,1.98
2024-05-09T08:58:16.895Z,5.70
2024-05-09T09:00:45.646Z,3.42
2024-05-09T09:03:19.946Z,1.88
2024-05-09T09:05:58.894Z,2.17
2024-05-09T09:08:26.753Z,1.87
2024-05-09T09:10:56.941Z,2.67
2024-05-09T09:13:24.119Z,1.73
2024-05-09T09:15:52.015Z,5.40
2024-05-09T09:18:19.602Z,5.43
2024-05-09T09:20:46.918Z,2.80
2024-05-09T09:23:14.086Z,6.65
2024-05-09T09:25:41.238Z,3.20
2024-05-09T09:28:09.317Z,6.75
2024-05-09T09:30:43.707Z,3.97
2024-05-09T09:33:11.884Z,1.98
2024-05-09T09:35:42.343Z,3.15
2024-05-09T09:38:11.123Z,4.78
2024-05-09T09:40:46.669Z,7.78
2024-05-09T09:43:20.609Z,6.32
2024-05-09T09:45:53.252Z,8.50
2024-05-09T09:48:22.559Z,10.50
2024-05-09T09:50:52.834Z,4.13
2024-05-09T09:53:20.387Z,2.88
2024-05-09T09:55:48.761Z,4.20
2024-05-09T09:58:18.145Z,4.78
2024-05-09T10:00:45.856Z,3.35
2024-05-09T10:03:13.372Z,3.35
2024-05-09T10:05:43.983Z,4.63
2024-05-09T10:08:14.037Z,3.40
2024-05-09T10:10:47.692Z,2.22
2024-05-09T10:13:15.245Z,4.38
2024-05-09T10:15:54.249Z,4.45
2024-05-09T10:18:28.389Z,5.30
2024-05-09T10:20:58.002Z,7.65
2024-05-09T10:23:29.574Z,5.38
2024-05-09T10:26:00.099Z,6.47
2024-05-09T10:28:32.991Z,3.25
2024-05-09T10:31:11.912Z,6.20
2024-05-09T10:33:48.918Z,7.22
2024-05-09T10:36:22.970Z,5.20
2024-05-09T10:38:51.182Z,4.72
2024-05-09T10:41:19.263Z,4.80
2024-05-09T10:43:47.617Z,4.00
2024-05-09T10:46:15.295Z,3.42
2024-05-09T10:48:44.535Z,4.70
2024-05-09T10:51:12.289Z,5.85
2024-05-09T10:53:47.517Z,2.63
2024-05-09T10:56:15.048Z,3.38
2024-05-09T10:58:42.262Z,4.40
2024-05-09T11:01:10.273Z,4.90
2024-05-09T11:03:38.997Z,4.13
2024-05-09T11:06:07.064Z,3.25
2024-05-09T11:08:35.208Z,6.95
2024-05-09T11:11:07.189Z,4.85
2024-05-09T11:13:36.271Z,5.78
2024-05-09T11:16:04.697Z,3.38
2024-05-09T11:18:36.637Z,4.10
2024-05-09T11:21:13.838Z,3.20
2024-05-09T11:23:41.624Z,2.72
2024-05-09T11:26:10.376Z,2.97
2024-05-09T11:28:37.544Z,3.00
2024-05-09T11:31:10.066Z,2.28
2024-05-09T11:33:39.601Z,2.83
2024-05-09T11:36:08.687Z,3.25
2024-05-09T11:38:35.845Z,8.07
2024-05-09T11:41:03.571Z,3.95
2024-05-09T11:43:30.813Z,4.05
2024-05-09T11:45:58.393Z,2.95
2024-05-09T11:48:26.653Z,2.58
2024-05-09T11:50:55.225Z,2.08
2024-05-09T11:53:22.486Z,2.00
2024-05-09T11:55:49.646Z,2.53
2024-05-09T11:58:18.099Z,4.15
2024-05-09T12:00:46.464Z,3.00
2024-05-09T12:03:14.084Z,2.80
2024-05-09T12:05:41.518Z,3.20
2024-05-09T12:08:08.824Z,4.70
2024-05-09T12:10:36.901Z,3.55
2024-05-09T12:13:06.496Z,3.50
2024-05-09T12:15:37.828Z,4.82
2024-05-09T12:18:06.574Z,4.25
2024-05-09T12:20:38.221Z,3.80
2024-05-09T12:23:09.514Z,3.70
2024-05-09T12:25:38.916Z,5.45
2024-05-09T12:28:07.044Z,3.38
2024-05-09T12:30:38.621Z,3.30
2024-05-09T12:33:12.730Z,3.20
2024-05-09T12:35:43.468Z,4.15
2024-05-09T12:38:12.777Z,5.63
2024-05-09T12:45:39.286Z,3.00
2024-05-09T12:48:11.701Z,5.20
2024-05-09T12:50:39.663Z,3.00
2024-05-09T12:53:06.949Z,3.53
2024-05-09T12:55:41.077Z,2.78
2024-05-09T12:58:16.737Z,4.13
2024-05-09T13:00:45.002Z,4.38
2024-05-09T13:03:12.467Z,3.63
2024-05-09T13:05:44.832Z,3.03
2024-05-09T13:08:12.792Z,2.53
2024-05-09T13:10:40.087Z,3.72
2024-05-09T13:13:07.392Z,2.85
2024-05-09T13:15:34.907Z,2.78
2024-05-09T13:18:03.587Z,4.82
2024-05-09T13:20:34.147Z,3.22
2024-05-09T13:23:07.002Z,4.45
2024-05-09T13:25:35.456Z,5.13
2024-05-09T13:28:03.762Z,4.20
2024-05-09T13:30:39.126Z,3.88
2024-05-09T13:33:13.149Z,5.32
2024-05-09T13:35:47.801Z,4.70
2024-05-09T13:38:19.161Z,4.90
2024-05-09T13:40:47.113Z,4.43
2024-05-09T13:43:14.576Z,5.82
2024-05-09T13:45:41.873Z,4.13
2024-05-09T13:48:12.217Z,4.35
2024-05-09T13:50:39.694Z,5.50
2024-05-09T13:53:08.220Z,4.57
2024-05-09T13:55:39.294Z,5.93
2024-05-09T13:58:08.333Z,4.15
2024-05-09T14:00:44.462Z,3.85
2024-05-09T14:03:17.120Z,4.10
2024-05-09T14:05:46.150Z,4.10
2024-05-09T14:08:15.604Z,4.43
2024-05-09T14:13:13.102Z,4.72
2024-05-09T14:15:40.605Z,5.22
2024-05-09T14:18:12.312Z,2.25
2024-05-09T14:20:41.077Z,4.20
2024-05-09T14:23:08.329Z,3.83
2024-05-09T14:25:38.920Z,4.15
2024-05-09T14:28:09.116Z,4.15
2024-05-09T14:30:38.121Z,3.35
2024-05-09T14:33:07.925Z,4.13
2024-05-09T14:35:37.308Z,3.47
2024-05-09T14:38:04.969Z,3.38
2024-05-09T14:43:03.713Z,4.13
2024-05-09T14:45:30.985Z,4.35
2024-05-09T14:47:58.212Z,3.80
2024-05-09T14:50:34.615Z,5.30
2024-05-09T14:53:05.951Z,6.30
2024-05-09T14:55:35.640Z,3.25
2024-05-09T14:58:03.346Z,4.82
2024-05-09T15:00:35.845Z,4.53
2024-05-09T15:03:05.259Z,4.78
2024-05-09T15:05:32.478Z,5.25
2024-05-09T15:08:00.205Z,4.93
2024-05-09T15:10:34.260Z,3.47
2024-05-09T15:13:04.680Z,6.95
2024-05-09T15:15:32.105Z,4.90
2024-05-09T15:18:00.333Z,5.88
2024-05-09T15:20:34.329Z,6.75
2024-05-09T15:23:04.977Z,6.95
2024-05-09T15:25:34.051Z,4.40
2024-05-09T15:28:01.398Z,5.03
2024-05-09T15:30:32.080Z,4.80
2024-05-09T15:33:03.921Z,5.15
2024-05-09T15:35:31.909Z,4.97
2024-05-09T15:37:59.477Z,6.93
2024-05-09T15:40:35.629Z,4.88
2024-05-09T15:43:08.143Z,3.95
2024-05-09T15:45:36.247Z,5.60
2024-05-09T15:48:04.526Z,4.93
2024-05-09T15:50:37.557Z,4.60
2024-05-09T15:53:09.106Z,6.45
2024-05-09T15:55:37.085Z,5.93
2024-05-09T15:58:05.044Z,4.80
2024-05-09T16:00:38.523Z,4.55
2024-05-09T16:03:13.533Z,5.70
2024-05-09T16:05:43.450Z,5.38
2024-05-09T16:08:12.417Z,4.70
2024-05-09T16:10:44.185Z,5.00
2024-05-09T16:13:12.571Z,5.00
2024-05-09T16:15:39.939Z,4.70
2024-05-09T16:18:07.735Z,4.03
2024-05-09T16:20:40.016Z,2.50
2024-05-09T16:23:09.978Z,3.72
2024-05-09T16:25:37.804Z,3.83
2024-05-09T16:28:09.008Z,4.63
2024-05-09T16:30:41.239Z,5.13
2024-05-09T16:33:09.415Z,2.25
2024-05-09T16:35:37.499Z,4.18
2024-05-09T16:38:05.880Z,3.13
2024-05-09T16:40:38.267Z,2.40
2024-05-09T16:43:08.951Z,4.22
2024-05-09T16:45:36.843Z,3.80
2024-05-09T16:48:04.717Z,4.68
2024-05-09T16:50:34.777Z,4.60
2024-05-09T16:53:04.729Z,4.30
2024-05-09T16:57:59.843Z,4.78
2024-05-09T17:00:37.902Z,3.80
2024-05-09T17:03:11.227Z,3.50
2024-05-09T17:05:39.403Z,3.22
2024-05-09T17:08:07.311Z,5.85
2024-05-09T17:10:36.201Z,4.47
2024-05-09T17:13:06.679Z,2.33
2024-05-09T17:15:35.642Z,2.33
2024-05-09T17:18:04.257Z,2.60
2024-05-09T17:20:34.823Z,4.13
2024-05-09T17:23:05.831Z,6.22
2024-05-09T17:28:06.239Z,2.63
2024-05-09T17:30:37.110Z,3.13
2024-05-09T17:33:07.456Z,3.20
2024-05-09T17:35:36.103Z,2.70
2024-05-09T17:38:03.352Z,2.42
2024-05-09T17:40:34.253Z,2.80
2024-05-09T17:43:04.925Z,2.90
2024-05-09T17:45:32.928Z,2.33
2024-05-09T17:48:00.634Z,2.35
2024-05-09T17:50:34.919Z,2.28
2024-05-09T17:53:04.503Z,2.47
2024-05-09T17:55:31.848Z,2.20
2024-05-09T17:57:59.187Z,3.53
2024-05-09T18:00:37.469Z,2.40
2024-05-09T18:03:08.912Z,2.45
2024-05-09T18:05:37.266Z,2.23
2024-05-09T18:08:06.094Z,2.30
2024-05-09T18:10:37.311Z,2.50
2024-05-09T18:13:08.023Z,2.70
2024-05-09T18:15:35.602Z,2.30
2024-05-09T18:18:03.659Z,2.63
2024-05-09T18:20:40.569Z,2.53
2024-05-09T18:23:13.153Z,2.08
2024-05-09T18:25:40.539Z,2.45
2024-05-09T18:28:08.359Z,2.75
2024-05-09T18:30:37.036Z,2.70
2024-05-09T18:33:07.071Z,2.70
2024-05-09T18:35:35.546Z,2.33
2024-05-09T18:38:03.162Z,2.50
2024-05-09T18:40:34.600Z,2.42
2024-05-09T18:43:06.761Z,3.17
2024-05-09T18:45:35.766Z,2.35
2024-05-09T18:48:05.142Z,2.63
2024-05-09T18:50:37.305Z,2.58
2024-05-09T18:53:07.266Z,2.03
2024-05-09T18:55:34.878Z,2.25
2024-05-09T18:58:02.052Z,2.50
2024-05-09T19:00:35.803Z,2.60
2024-05-09T19:03:09.687Z,2.35
2024-05-09T19:05:39.746Z,2.60
2024-05-09T19:08:08.034Z,2.45
2024-05-09T19:10:36.285Z,2.58
2024-05-09T19:13:08.655Z,2.40
2024-05-09T19:15:39.904Z,3.05
2024-05-09T19:18:07.918Z,2.55
2024-05-09T19:20:36.824Z,2.40
2024-05-09T19:23:06.611Z,2.92
2024-05-09T19:28:01.968Z,2.83
2024-05-09T19:30:37.949Z,2.85
2024-05-09T19:33:09.284Z,2.47
2024-05-09T19:35:37.059Z,2.70
2024-05-09T19:38:05.139Z,2.20
2024-05-09T19:40:34.126Z,2.38
2024-05-09T19:43:03.481Z,2.60
2024-05-09T19:45:32.727Z,2.55
2024-05-09T19:48:00.677Z,2.63
2024-05-09T19:50:36.963Z,2.83
2024-05-09T19:53:10.718Z,2.53
2024-05-09T19:55:39.188Z,2.60
2024-05-09T19:58:07.677Z,2.90
2024-05-09T20:00:41.748Z,3.30
2024-05-09T20:03:12.441Z,2.55
2024-05-09T20:05:40.302Z,2.65
2024-05-09T20:08:07.870Z,2.78
2024-05-09T20:10:36.375Z,2.67
2024-05-09T20:13:08.336Z,2.88
2024-05-09T20:15:37.747Z,3.95
2024-05-09T20:20:39.381Z,3.42
2024-05-09T20:23:13.109Z,2.63
2024-05-09T20:25:40.837Z,2.63
2024-05-09T20:28:08.213Z,3.22
2024-05-09T20:30:36.274Z,2.50
2024-05-09T20:33:05.928Z,2.92
2024-05-09T20:35:34.861Z,3.22
2024-05-09T20:38:03.307Z,2.78
2024-05-09T20:40:35.182Z,2.80
2024-05-09T20:43:06.234Z,2.80
2024-05-09T20:45:34.175Z,2.83
2024-05-09T20:48:01.833Z,2.95
2024-05-09T20:50:37.073Z,2.97
2024-05-09T20:53:13.411Z,2.75
2024-05-09T20:55:43.012Z,2.75
2024-05-09T20:58:10.798Z,2.45
2024-05-09T21:00:42.070Z,3.03
2024-05-09T21:03:13.452Z,2.50
2024-05-09T21:05:42.047Z,2.95
2024-05-09T21:08:09.947Z,2.97
2024-05-09T21:10:37.907Z,2.80
2024-05-09T21:13:07.268Z,3.17
2024-05-09T21:15:35.735Z,2.60
2024-05-09T21:18:04.415Z,2.78
2024-05-09T21:20:34.794Z,2.25
2024-05-09T21:23:03.259Z,2.85
2024-05-09T21:25:31.186Z,3.00
2024-05-09T21:27:58.649Z,2.70
2024-05-09T21:30:33.103Z,4.95
2024-05-09T21:33:10.612Z,2.75
2024-05-09T21:35:39.726Z,2.88
2024-05-09T21:38:08.256Z,2.80
2024-05-09T21:40:37.992Z,4.43
2024-05-09T21:43:08.465Z,2.50
2024-05-09T21:45:37.514Z,3.30
2024-05-09T21:48:06.256Z,2.70
2024-05-09T21:50:39.916Z,2.50
2024-05-09T21:53:09.848Z,3.42
2024-05-09T21:55:37.344Z,4.32
2024-05-09T21:58:04.795Z,3.10
2024-05-09T22:00:36.812Z,3.47
2024-05-09T22:03:07.675Z,3.15
2024-05-09T22:05:36.063Z,2.85
2024-05-09T22:08:03.835Z,2.80
2024-05-09T22:10:34.920Z,2.90
2024-05-09T22:13:05.432Z,3.33
2024-05-09T22:18:05.536Z,4.07
2024-05-09T22:20:37.822Z,3.00
2024-05-09T22:23:07.548Z,2.95
2024-05-09T22:25:35.512Z,4.20
2024-05-09T22:28:03.846Z,2.92
2024-05-09T22:30:36.450Z,3.40
2024-05-09T22:33:09.132Z,3.10
2024-05-09T22:35:38.153Z,3.22
2024-05-09T22:38:05.564Z,3.20
2024-05-09T22:40:42.724Z,3.15
2024-05-09T22:43:18.666Z,3.08
2024-05-09T22:45:47.508Z,3.35
2024-05-09T22:48:15.056Z,2.60
2024-05-09T22:50:42.617Z,3.10
2024-05-09T22:53:09.792Z,2.80
2024-05-09T22:55:36.976Z,3.50
2024-05-09T22:58:04.130Z,3.50
2024-05-09T23:00:32.804Z,3.00
2024-05-09T23:03:01.816Z,3.30
2024-05-09T23:05:29.528Z,3.28
2024-05-09T23:07:56.948Z,3.45
2024-05-09T23:10:32.145Z,2.85
2024-05-09T23:13:04.008Z,3.85
2024-05-09T23:15:31.459Z,2.70
2024-05-09T23:17:59.129Z,3.63
2024-05-09T23:20:33.887Z,2.58
2024-05-09T23:23:06.515Z,3.45
2024-05-09T23:25:33.905Z,3.35
2024-05-09T23:28:01.243Z,3.05
2024-05-09T23:30:36.053Z,3.28
2024-05-09T23:33:06.835Z,2.92
2024-05-09T23:35:34.134Z,3.55
2024-05-09T23:38:01.276Z,3.22
2024-05-09T23:40:37.676Z,3.28
2024-05-09T23:43:08.940Z,3.13
2024-05-09T23:45:36.638Z,2.85
2024-05-09T23:48:04.201Z,2.75
2024-05-09T23:50:36.071Z,3.08
2024-05-09T23:53:07.093Z,3.75
2024-05-09T23:55:35.424Z,3.03
2024-05-09T23:58:02.656Z,3.10
